createdAt,value
2018-12-12T00:01:49.656Z,26.25
2018-12-12T00:04:18.076Z,25.50
2018-12-12T00:06:46.636Z,25.90
2018-12-12T00:09:15.181Z,28.70
2018-12-12T00:11:43.600Z,29.70
2018-12-12T00:14:12.169Z,27.85
2018-12-12T00:16:40.626Z,31.95
2018-12-12T00:19:09.057Z,30.02
2018-12-12T00:21:37.490Z,33.13
2018-12-12T00:24:05.922Z,31.20
2018-12-12T00:26:34.384Z,28.83
2018-12-12T00:29:02.822Z,28.10
2018-12-12T00:31:31.295Z,28.07
2018-12-12T00:33:59.705Z,28.30
2018-12-12T00:36:28.158Z,31.52
2018-12-12T00:38:56.639Z,25.50
2018-12-12T00:41:25.128Z,35.65
2018-12-12T00:43:53.550Z,28.25
2018-12-12T00:46:21.990Z,40.88
2018-12-12T00:48:50.438Z,26.03
2018-12-12T00:51:18.975Z,35.50
2018-12-12T00:53:53.968Z,31.07
2018-12-12T00:56:22.415Z,27.77
2018-12-12T00:58:50.878Z,39.83
2018-12-12T01:01:19.376Z,37.60
2018-12-12T01:03:47.823Z,29.85
2018-12-12T01:06:16.240Z,31.77
2018-12-12T01:08:44.822Z,28.00
2018-12-12T01:11:18.817Z,32.67
2018-12-12T01:13:47.236Z,29.33
2018-12-12T01:16:15.636Z,35.83
2018-12-12T01:18:44.172Z,27.27
2018-12-12T01:21:12.615Z,36.88
2018-12-12T01:23:41.155Z,31.23
2018-12-12T01:26:09.576Z,39.70
2018-12-12T01:28:37.984Z,33.20
2018-12-12T01:31:06.391Z,33.17
2018-12-12T01:33:34.807Z,36.20
2018-12-12T01:36:03.216Z,28.85
2018-12-12T01:38:31.636Z,41.00
2018-12-12T01:41:00.055Z,33.13
2018-12-12T01:43:28.481Z,24.02
2018-12-12T01:45:56.879Z,29.60
2018-12-12T01:48:25.303Z,34.10
2018-12-12T01:50:53.717Z,36.43
2018-12-12T01:53:22.151Z,37.03
2018-12-12T01:55:50.593Z,29.73
2018-12-12T01:58:18.999Z,38.50
2018-12-12T02:00:47.397Z,29.77
2018-12-12T02:03:15.830Z,33.20
2018-12-12T02:05:44.241Z,34.80
2018-12-12T02:08:12.874Z,39.77
2018-12-12T02:10:41.634Z,34.38
2018-12-12T02:13:21.463Z,36.10
2018-12-12T02:15:49.891Z,35.73
2018-12-12T02:18:18.321Z,29.90
2018-12-12T02:20:46.768Z,29.90
2018-12-12T02:23:15.189Z,38.08
2018-12-12T02:25:43.633Z,36.30
2018-12-12T02:28:12.028Z,33.38
2018-12-12T02:30:40.589Z,37.83
2018-12-12T02:33:09.006Z,36.50
2018-12-12T02:35:37.412Z,35.80
2018-12-12T02:38:05.877Z,38.07
2018-12-12T02:40:34.275Z,28.75
2018-12-12T02:43:02.732Z,34.63
2018-12-12T02:45:31.207Z,31.33
2018-12-12T02:47:59.707Z,33.93
2018-12-12T02:50:28.155Z,44.63
2018-12-12T02:52:56.584Z,28.90
2018-12-12T02:55:25.007Z,39.60
2018-12-12T02:57:53.404Z,41.60
2018-12-12T03:00:21.819Z,35.52
2018-12-12T03:02:50.239Z,32.10
2018-12-12T03:05:18.667Z,34.63
2018-12-12T03:07:47.057Z,34.87
2018-12-12T03:10:15.483Z,34.97
2018-12-12T03:12:43.903Z,39.63
2018-12-12T03:15:12.335Z,28.67
2018-12-12T03:17:40.849Z,33.30
2018-12-12T03:20:09.261Z,51.13
2018-12-12T03:22:37.691Z,32.60
2018-12-12T03:25:06.371Z,34.03
2018-12-12T03:27:34.811Z,37.93
2018-12-12T03:30:03.404Z,26.75
2018-12-12T03:32:31.835Z,42.57
2018-12-12T03:35:00.454Z,37.00
2018-12-12T03:37:28.879Z,30.43
2018-12-12T03:39:57.932Z,37.03
2018-12-12T03:42:27.132Z,33.78
2018-12-12T03:44:55.565Z,28.40
2018-12-12T03:47:24.024Z,33.80
2018-12-12T03:49:52.448Z,33.47
2018-12-12T03:52:20.900Z,34.85
2018-12-12T03:54:49.382Z,36.70
2018-12-12T03:57:17.792Z,39.33
2018-12-12T03:59:46.224Z,36.33
2018-12-12T04:02:14.712Z,39.63
2018-12-12T04:04:43.120Z,44.98
2018-12-12T04:07:11.550Z,42.25
2018-12-12T04:09:39.977Z,29.67
2018-12-12T04:12:08.376Z,41.97
2018-12-12T04:14:36.804Z,39.10
2018-12-12T04:17:05.215Z,39.97
2018-12-12T04:19:33.620Z,35.67
2018-12-12T04:22:02.035Z,28.73
2018-12-12T04:24:30.572Z,39.18
2018-12-12T04:26:59.000Z,38.28
2018-12-12T04:29:27.412Z,41.08
2018-12-12T04:31:56.036Z,54.67
2018-12-12T04:34:24.556Z,31.77
2018-12-12T04:36:52.976Z,32.47
2018-12-12T04:39:21.379Z,34.43
2018-12-12T04:41:49.826Z,56.30
2018-12-12T04:44:18.527Z,44.60
2018-12-12T04:46:46.957Z,27.73
2018-12-12T04:49:15.379Z,30.80
2018-12-12T04:51:43.806Z,32.93
2018-12-12T04:54:12.264Z,32.88
2018-12-12T04:56:40.663Z,27.50
2018-12-12T04:59:09.522Z,33.60
2018-12-12T05:01:37.936Z,36.30
2018-12-12T05:04:06.355Z,33.93
2018-12-12T05:06:34.776Z,45.83
2018-12-12T05:09:04.395Z,44.98
2018-12-12T05:11:32.816Z,34.20
2018-12-12T05:14:01.413Z,31.43
2018-12-12T05:16:29.869Z,36.70
2018-12-12T05:18:58.301Z,50.05
2018-12-12T05:21:26.683Z,31.90
2018-12-12T05:23:55.131Z,39.70
2018-12-12T05:26:23.556Z,40.60
2018-12-12T05:28:51.968Z,40.35
2018-12-12T05:31:20.408Z,46.87
2018-12-12T05:33:48.824Z,45.20
2018-12-12T05:36:17.236Z,37.00
2018-12-12T05:38:45.672Z,37.50
2018-12-12T05:41:14.054Z,40.10
2018-12-12T05:43:42.468Z,37.97
2018-12-12T05:46:10.900Z,35.67
2018-12-12T05:48:39.691Z,32.83
2018-12-12T05:51:08.091Z,46.50
2018-12-12T05:53:36.536Z,40.80
2018-12-12T05:56:04.951Z,40.50
2018-12-12T05:58:33.378Z,40.33
2018-12-12T06:01:01.782Z,36.40
2018-12-12T06:03:30.201Z,43.43
2018-12-12T06:05:58.715Z,30.17
2018-12-12T06:08:27.137Z,39.23
2018-12-12T06:10:55.530Z,37.93
2018-12-12T06:13:23.930Z,27.50
2018-12-12T06:15:52.380Z,42.08
2018-12-12T06:18:20.791Z,37.10
2018-12-12T06:20:49.230Z,30.63
2018-12-12T06:23:17.654Z,34.23
2018-12-12T06:25:46.113Z,37.33
2018-12-12T06:28:14.551Z,34.83
2018-12-12T06:30:42.991Z,38.63
2018-12-12T06:33:11.411Z,38.10
2018-12-12T06:35:39.839Z,44.17
2018-12-12T06:38:08.272Z,37.57
2018-12-12T06:40:36.676Z,41.07
2018-12-12T06:43:05.217Z,41.42
2018-12-12T06:45:33.627Z,41.23
2018-12-12T06:48:02.157Z,40.08
2018-12-12T06:50:30.567Z,43.10
2018-12-12T06:52:59.031Z,43.43
2018-12-12T06:55:27.448Z,38.93
2018-12-12T06:57:55.843Z,38.30
2018-12-12T07:00:24.339Z,30.62
2018-12-12T07:02:52.757Z,33.77
2018-12-12T07:05:21.192Z,37.50
2018-12-12T07:07:49.640Z,41.00
2018-12-12T07:10:18.052Z,37.73
2018-12-12T07:12:46.493Z,45.97
2018-12-12T07:15:14.948Z,29.17
2018-12-12T07:17:43.384Z,33.83
2018-12-12T07:20:11.837Z,32.65
2018-12-12T07:22:40.303Z,44.42
2018-12-12T07:25:08.887Z,35.92
2018-12-12T07:27:37.299Z,31.10
2018-12-12T07:30:06.923Z,31.23
2018-12-12T07:32:35.458Z,30.57
2018-12-12T07:35:04.045Z,44.93
2018-12-12T07:37:32.516Z,32.28
2018-12-12T07:40:00.919Z,43.83
2018-12-12T07:42:29.361Z,29.53
2018-12-12T07:44:57.817Z,37.30
2018-12-12T07:47:26.232Z,35.00
2018-12-12T07:49:54.655Z,38.98
2018-12-12T07:52:23.091Z,40.07
2018-12-12T07:54:52.105Z,36.55
2018-12-12T07:57:20.539Z,27.70
2018-12-12T07:59:49.011Z,46.83
2018-12-12T08:02:17.451Z,40.00
2018-12-12T08:04:46.212Z,35.52
2018-12-12T08:07:14.652Z,36.33
2018-12-12T08:09:43.243Z,33.63
2018-12-12T08:12:11.661Z,37.17
2018-12-12T08:14:40.108Z,32.30
2018-12-12T08:17:08.599Z,39.65
2018-12-12T08:19:37.027Z,36.60
2018-12-12T08:22:06.360Z,42.93
2018-12-12T08:24:34.954Z,47.10
2018-12-12T08:27:03.372Z,25.85
2018-12-12T08:29:31.885Z,38.50
2018-12-12T08:32:00.316Z,37.00
2018-12-12T08:34:28.760Z,32.67
2018-12-12T08:36:57.196Z,40.52
2018-12-12T08:39:25.632Z,37.17
2018-12-12T08:41:54.063Z,39.65
2018-12-12T08:44:22.516Z,38.30
2018-12-12T08:46:50.936Z,45.53
2018-12-12T08:49:19.434Z,34.57
2018-12-12T08:51:47.901Z,42.43
2018-12-12T08:54:16.339Z,42.90
2018-12-12T08:56:44.788Z,33.80
2018-12-12T08:59:13.221Z,29.23
2018-12-12T09:01:41.794Z,27.83
2018-12-12T09:04:10.215Z,30.33
2018-12-12T09:06:38.663Z,36.07
2018-12-12T09:09:07.668Z,33.40
2018-12-12T09:11:36.069Z,32.80
2018-12-12T09:14:04.516Z,25.73
2018-12-12T09:16:32.929Z,28.03
2018-12-12T09:19:01.360Z,21.60
2018-12-12T09:21:29.780Z,24.37
2018-12-12T09:23:58.265Z,26.90
2018-12-12T09:26:26.679Z,25.83
2018-12-12T09:28:55.126Z,30.13
2018-12-12T09:31:23.541Z,29.20
2018-12-12T09:33:51.965Z,34.37
2018-12-12T09:36:20.366Z,21.33
2018-12-12T09:38:48.811Z,32.93
2018-12-12T09:41:17.240Z,23.73
2018-12-12T09:43:45.711Z,28.70
2018-12-12T09:46:14.142Z,26.20
2018-12-12T09:48:42.558Z,23.43
2018-12-12T09:51:11.000Z,25.10
2018-12-12T09:53:39.539Z,29.23
2018-12-12T09:56:08.090Z,24.27
2018-12-12T09:58:36.516Z,25.17
2018-12-12T10:01:06.325Z,27.70
2018-12-12T10:03:34.970Z,22.87
2018-12-12T10:06:03.388Z,21.83
2018-12-12T10:08:31.799Z,18.30
2018-12-12T10:11:00.223Z,22.70
2018-12-12T10:13:28.624Z,18.20
2018-12-12T10:15:57.083Z,23.27
2018-12-12T10:18:25.621Z,21.07
2018-12-12T10:20:54.072Z,21.97
2018-12-12T10:23:22.475Z,23.50
2018-12-12T10:25:50.872Z,21.07
2018-12-12T10:28:19.331Z,21.53
2018-12-12T10:30:47.867Z,23.60
2018-12-12T10:33:16.314Z,15.83
2018-12-12T10:35:44.741Z,19.23
2018-12-12T10:38:13.165Z,24.03
2018-12-12T10:40:41.638Z,23.43
2018-12-12T10:43:10.077Z,24.70
2018-12-12T10:45:38.505Z,23.33
2018-12-12T10:48:08.267Z,20.50
2018-12-12T10:50:36.909Z,18.83
2018-12-12T10:53:05.371Z,21.93
2018-12-12T10:55:33.812Z,18.50
2018-12-12T10:58:02.260Z,15.17
2018-12-12T11:00:32.688Z,16.97
2018-12-12T11:03:06.477Z,15.10
2018-12-12T11:05:35.035Z,16.37
2018-12-12T11:08:03.756Z,14.40
2018-12-12T11:10:32.193Z,15.67
2018-12-12T11:13:00.611Z,13.23
2018-12-12T11:15:29.054Z,17.50
2018-12-12T11:17:57.491Z,12.33
2018-12-12T11:20:25.933Z,15.10
2018-12-12T11:22:54.344Z,15.50
2018-12-12T11:25:22.787Z,13.77
2018-12-12T11:27:51.231Z,14.93
2018-12-12T11:30:19.678Z,15.30
2018-12-12T11:32:48.098Z,9.27
2018-12-12T11:35:16.533Z,7.70
2018-12-12T11:37:44.938Z,15.70
2018-12-12T11:40:13.348Z,8.17
2018-12-12T11:42:41.785Z,10.53
2018-12-12T11:45:10.189Z,7.37
2018-12-12T11:47:38.615Z,5.40
2018-12-12T11:50:07.326Z,7.20
2018-12-12T11:52:35.736Z,5.10
2018-12-12T11:55:04.435Z,4.43
2018-12-12T11:57:33.133Z,3.90
2018-12-12T12:00:01.523Z,4.93
2018-12-12T12:02:35.451Z,3.40
2018-12-12T12:05:00.404Z,4.43
2018-12-12T12:07:28.830Z,4.03
2018-12-12T12:09:57.251Z,5.27
2018-12-12T12:12:25.814Z,5.37
2018-12-12T12:14:54.228Z,5.80
2018-12-12T12:17:22.679Z,5.23
2018-12-12T12:19:51.113Z,5.20
2018-12-12T12:22:19.542Z,6.40
2018-12-12T12:24:47.983Z,6.77
2018-12-12T12:27:16.385Z,5.80
2018-12-12T12:29:44.778Z,4.97
2018-12-12T12:32:13.227Z,5.10
2018-12-12T12:34:41.661Z,4.50
2018-12-12T12:37:10.063Z,4.80
2018-12-12T12:39:38.500Z,5.33
2018-12-12T12:42:06.899Z,5.30
2018-12-12T12:44:35.319Z,5.37
2018-12-12T12:47:03.771Z,4.30
2018-12-12T12:49:32.205Z,3.93
2018-12-12T12:52:00.697Z,3.73
2018-12-12T12:54:29.145Z,3.93
2018-12-12T12:56:57.573Z,3.80
2018-12-12T12:59:26.052Z,4.87
2018-12-12T13:01:54.512Z,7.43
2018-12-12T13:04:22.903Z,8.67
2018-12-12T13:06:51.333Z,5.77
2018-12-12T13:09:19.736Z,8.43
2018-12-12T13:11:48.441Z,4.73
2018-12-12T13:14:17.036Z,7.47
2018-12-12T13:16:45.491Z,9.23
2018-12-12T13:19:13.903Z,6.97
2018-12-12T13:21:42.336Z,5.90
2018-12-12T13:24:10.823Z,11.40
2018-12-12T13:26:39.239Z,6.70
2018-12-12T13:29:07.660Z,4.97
2018-12-12T13:31:36.127Z,4.43
2018-12-12T13:34:04.659Z,7.27
2018-12-12T13:36:33.057Z,6.60
2018-12-12T13:39:01.490Z,5.70
2018-12-12T13:41:29.924Z,10.33
2018-12-12T13:43:58.364Z,5.30
2018-12-12T13:46:26.795Z,7.20
2018-12-12T13:48:55.236Z,5.67
2018-12-12T13:51:23.656Z,7.97
2018-12-12T13:53:52.105Z,11.83
2018-12-12T13:56:20.592Z,6.47
2018-12-12T13:58:48.996Z,5.17
2018-12-12T14:01:23.772Z,5.00
2018-12-12T14:03:52.222Z,8.27
2018-12-12T14:06:20.627Z,5.57
2018-12-12T14:08:49.084Z,4.77
2018-12-12T14:11:17.493Z,22.67
2018-12-12T14:13:45.922Z,7.23
2018-12-12T14:16:14.356Z,3.37
2018-12-12T14:18:42.851Z,3.00
2018-12-12T14:21:11.268Z,2.50
2018-12-12T14:23:39.671Z,2.63
2018-12-12T14:26:08.315Z,3.30
2018-12-12T14:28:36.717Z,3.40
2018-12-12T14:31:05.267Z,4.07
2018-12-12T14:33:33.678Z,3.53
2018-12-12T14:36:02.089Z,5.27
2018-12-12T14:38:30.504Z,4.40
2018-12-12T14:40:58.937Z,3.77
2018-12-12T14:43:27.392Z,4.73
2018-12-12T14:45:55.844Z,4.37
2018-12-12T14:48:30.170Z,5.30
2018-12-12T14:50:54.728Z,5.80
2018-12-12T14:53:29.907Z,4.23
2018-12-12T14:55:58.360Z,4.53
2018-12-12T14:58:26.743Z,4.63
2018-12-12T15:00:55.300Z,6.50
2018-12-12T15:03:23.723Z,5.97
2018-12-12T15:05:52.167Z,5.33
2018-12-12T15:08:20.564Z,4.87
2018-12-12T15:10:48.982Z,5.00
2018-12-12T15:13:17.900Z,6.70
2018-12-12T15:15:46.572Z,5.90
2018-12-12T15:18:14.999Z,7.93
2018-12-12T15:20:43.422Z,6.87
2018-12-12T15:23:11.843Z,6.20
2018-12-12T15:25:40.262Z,5.07
2018-12-12T15:28:08.903Z,5.20
2018-12-12T15:30:37.303Z,11.43
2018-12-12T15:33:05.839Z,5.37
2018-12-12T15:35:34.262Z,9.07
2018-12-12T15:38:02.700Z,8.77
2018-12-12T15:40:31.141Z,5.00
2018-12-12T15:42:59.653Z,7.20
2018-12-12T15:45:28.057Z,7.20
2018-12-12T15:47:56.519Z,9.33
2018-12-12T15:50:24.946Z,9.48
2018-12-12T15:52:53.369Z,8.97
2018-12-12T15:55:21.971Z,9.17
2018-12-12T15:57:50.425Z,7.90
2018-12-12T16:00:20.195Z,10.67
2018-12-12T16:02:48.731Z,7.20
2018-12-12T16:05:17.338Z,14.30
2018-12-12T16:07:45.729Z,7.90
2018-12-12T16:10:14.218Z,16.25
2018-12-12T16:12:42.648Z,13.70
2018-12-12T16:15:11.093Z,10.48
2018-12-12T16:17:39.513Z,9.98
2018-12-12T16:20:08.364Z,9.35
2018-12-12T16:22:36.800Z,13.98
2018-12-12T16:25:06.016Z,10.08
2018-12-12T16:27:34.500Z,9.93
2018-12-12T16:30:02.952Z,10.70
2018-12-12T16:32:31.339Z,9.50
2018-12-12T16:34:59.840Z,9.47
2018-12-12T16:37:28.236Z,12.10
2018-12-12T16:39:56.669Z,7.92
2018-12-12T16:42:25.091Z,9.35
2018-12-12T16:44:53.558Z,10.23
2018-12-12T16:47:21.959Z,8.88
2018-12-12T16:49:50.379Z,10.08
2018-12-12T16:52:18.932Z,9.98
2018-12-12T16:54:47.355Z,13.98
2018-12-12T16:57:15.797Z,10.55
2018-12-12T16:59:44.213Z,8.33
2018-12-12T17:02:12.656Z,10.13
2018-12-12T17:04:41.067Z,14.87
2018-12-12T17:07:09.494Z,8.25
2018-12-12T17:09:37.912Z,8.25
2018-12-12T17:12:06.344Z,11.60
2018-12-12T17:14:34.769Z,11.97
2018-12-12T17:17:03.319Z,7.92
2018-12-12T17:19:31.920Z,8.43
2018-12-12T17:22:00.349Z,9.88
2018-12-12T17:24:28.792Z,12.80
2018-12-12T17:26:57.822Z,9.18
2018-12-12T17:29:26.244Z,17.23
2018-12-12T17:31:54.752Z,9.30
2018-12-12T17:34:23.208Z,12.25
2018-12-12T17:36:51.637Z,17.77
2018-12-12T17:39:20.051Z,9.98
2018-12-12T17:41:48.481Z,9.63
2018-12-12T17:44:16.926Z,14.65
2018-12-12T17:46:45.357Z,11.90
2018-12-12T17:49:13.798Z,13.28
2018-12-12T17:51:42.216Z,13.48
2018-12-12T17:54:10.648Z,12.40
2018-12-12T17:56:39.112Z,19.90
2018-12-12T17:59:07.528Z,10.43
2018-12-12T18:01:35.926Z,9.48
2018-12-12T18:04:04.483Z,10.82
2018-12-12T18:06:32.898Z,14.83
2018-12-12T18:09:01.334Z,14.05
2018-12-12T18:11:29.764Z,12.43
2018-12-12T18:13:58.179Z,9.75
2018-12-12T18:16:26.669Z,13.03
2018-12-12T18:18:55.088Z,10.35
2018-12-12T18:21:23.561Z,15.68
2018-12-12T18:23:51.995Z,14.25
2018-12-12T18:26:20.455Z,8.68
2018-12-12T18:28:48.876Z,8.65
2018-12-12T18:31:19.213Z,10.13
2018-12-12T18:33:47.664Z,11.22
2018-12-12T18:36:16.176Z,16.07
2018-12-12T18:38:44.583Z,14.47
2018-12-12T18:41:13.629Z,14.03
2018-12-12T18:43:42.056Z,13.88
2018-12-12T18:46:10.487Z,11.33
2018-12-12T18:48:38.934Z,9.50
2018-12-12T18:51:07.383Z,11.50
2018-12-12T18:53:35.814Z,11.30
2018-12-12T18:56:04.359Z,10.00
2018-12-12T18:58:32.815Z,9.03
2018-12-12T19:01:01.230Z,11.73
2018-12-12T19:03:29.695Z,12.40
2018-12-12T19:05:58.105Z,11.70
2018-12-12T19:08:26.714Z,10.65
2018-12-12T19:10:55.144Z,12.95
2018-12-12T19:13:23.572Z,12.18
2018-12-12T19:15:52.077Z,7.85
2018-12-12T19:18:20.636Z,11.88
2018-12-12T19:20:49.055Z,10.82
2018-12-12T19:23:17.724Z,10.88
2018-12-12T19:25:46.134Z,9.83
2018-12-12T19:28:14.596Z,21.52
2018-12-12T19:30:43.028Z,8.68
2018-12-12T19:33:11.435Z,11.63
2018-12-12T19:35:39.890Z,7.33
2018-12-12T19:38:08.304Z,7.05
2018-12-12T19:40:36.739Z,11.68
2018-12-12T19:43:05.140Z,10.50
2018-12-12T19:45:33.602Z,8.55
2018-12-12T19:48:02.004Z,5.60
2018-12-12T19:50:30.465Z,7.40
2018-12-12T19:52:58.862Z,10.60
2018-12-12T19:55:27.288Z,7.05
2018-12-12T19:57:55.747Z,7.70
2018-12-12T20:00:24.197Z,8.73
2018-12-12T20:02:52.644Z,8.35
2018-12-12T20:05:21.036Z,7.12
2018-12-12T20:07:49.463Z,6.22
2018-12-12T20:10:17.918Z,8.00
2018-12-12T20:12:46.576Z,10.65
2018-12-12T20:15:20.352Z,9.35
2018-12-12T20:17:48.871Z,8.08
2018-12-12T20:20:17.398Z,7.80
2018-12-12T20:22:46.420Z,5.28
2018-12-12T20:25:16.096Z,10.40
2018-12-12T20:27:46.294Z,6.50
2018-12-12T20:30:20.986Z,7.75
2018-12-12T20:32:56.913Z,6.65
2018-12-12T20:35:34.914Z,5.83
2018-12-12T20:38:05.987Z,5.85
2018-12-12T20:40:34.591Z,6.40
2018-12-12T20:43:05.292Z,6.35
2018-12-12T20:45:34.904Z,5.47
2018-12-12T20:48:11.960Z,7.33
2018-12-12T20:50:46.262Z,9.73
2018-12-12T20:53:21.771Z,6.80
2018-12-12T20:55:50.899Z,8.65
2018-12-12T20:58:25.440Z,10.45
2018-12-12T21:00:53.865Z,10.72
2018-12-12T21:03:22.339Z,9.58
2018-12-12T21:05:54.577Z,10.03
2018-12-12T21:08:21.376Z,8.13
2018-12-12T21:10:49.961Z,9.65
2018-12-12T21:13:18.603Z,7.95
2018-12-12T21:15:49.577Z,12.28
2018-12-12T21:18:18.924Z,8.67
2018-12-12T21:20:48.572Z,9.87
2018-12-12T21:23:17.493Z,9.98
2018-12-12T21:25:48.238Z,13.83
2018-12-12T21:28:16.760Z,10.70
2018-12-12T21:30:45.196Z,8.30
2018-12-12T21:33:13.628Z,8.30
2018-12-12T21:35:42.252Z,8.20
2018-12-12T21:38:10.929Z,8.53
2018-12-12T21:40:39.418Z,9.07
2018-12-12T21:43:07.839Z,11.53
2018-12-12T21:45:36.255Z,8.80
2018-12-12T21:48:04.721Z,12.03
2018-12-12T21:50:33.236Z,10.20
2018-12-12T21:53:01.787Z,10.20
2018-12-12T21:55:30.428Z,10.93
2018-12-12T21:57:58.917Z,9.10
2018-12-12T22:00:27.352Z,8.93
2018-12-12T22:02:55.771Z,8.90
2018-12-12T22:05:24.571Z,9.30
2018-12-12T22:07:53.036Z,12.50
2018-12-12T22:10:21.563Z,7.70
2018-12-12T22:12:50.012Z,6.70
2018-12-12T22:15:18.446Z,10.90
2018-12-12T22:17:46.921Z,9.43
2018-12-12T22:20:15.407Z,6.85
2018-12-12T22:22:44.158Z,6.77
2018-12-12T22:25:12.766Z,6.63
2018-12-12T22:27:41.240Z,7.00
2018-12-12T22:30:09.729Z,5.97
2018-12-12T22:32:38.148Z,6.30
2018-12-12T22:35:06.598Z,7.87
2018-12-12T22:37:35.207Z,10.30
2018-12-12T22:40:04.177Z,10.30
2018-12-12T22:42:32.764Z,11.13
2018-12-12T22:45:01.181Z,14.37
2018-12-12T22:47:29.656Z,7.90
2018-12-12T22:49:58.090Z,8.40
2018-12-12T22:52:26.588Z,8.33
2018-12-12T22:54:55.004Z,7.20
2018-12-12T22:57:23.443Z,7.37
2018-12-12T22:59:51.903Z,8.63
2018-12-12T23:02:20.342Z,10.03
2018-12-12T23:04:48.764Z,10.98
2018-12-12T23:07:17.188Z,9.10
2018-12-12T23:09:45.599Z,7.63
2018-12-12T23:12:14.069Z,8.25
2018-12-12T23:14:42.504Z,8.78
2018-12-12T23:17:10.896Z,7.30
2018-12-12T23:19:39.358Z,8.95
2018-12-12T23:22:07.803Z,8.50
2018-12-12T23:24:36.317Z,9.20
2018-12-12T23:27:04.853Z,8.20
2018-12-12T23:29:33.329Z,10.82
2018-12-12T23:32:01.779Z,6.87
2018-12-12T23:34:30.195Z,10.35
2018-12-12T23:36:58.616Z,8.85
2018-12-12T23:39:27.019Z,7.80
2018-12-12T23:41:55.439Z,8.23
2018-12-12T23:44:24.209Z,10.98
2018-12-12T23:46:52.660Z,11.75
2018-12-12T23:49:21.108Z,10.25
2018-12-12T23:51:49.510Z,9.08
2018-12-12T23:54:17.915Z,8.23
2018-12-12T23:56:46.342Z,11.85
2018-12-12T23:59:14.788Z,7.92
